createdAt,value
2022-10-18T00:02:20.756Z,15.03
2022-10-18T00:05:23.029Z,15.27
2022-10-18T00:08:25.445Z,15.32
2022-10-18T00:11:27.703Z,13.45
2022-10-18T00:14:30.173Z,14.10
2022-10-18T00:17:34.892Z,13.93
2022-10-18T00:20:37.198Z,14.30
2022-10-18T00:23:41.981Z,13.98
2022-10-18T00:26:44.665Z,13.25
2022-10-18T00:29:46.966Z,14.50
2022-10-18T00:32:49.236Z,12.57
2022-10-18T00:35:51.482Z,13.20
2022-10-18T00:38:54.018Z,12.13
2022-10-18T00:41:56.438Z,12.40
2022-10-18T00:45:18.874Z,13.23
2022-10-18T00:48:21.510Z,12.60
2022-10-18T00:51:27.829Z,12.75
2022-10-18T00:54:31.788Z,12.75
2022-10-18T00:57:34.719Z,12.57
2022-10-18T01:00:39.523Z,13.10
2022-10-18T01:03:42.045Z,13.20
2022-10-18T01:10:09.128Z,13.35
2022-10-18T01:13:49.778Z,13.25
2022-10-18T01:17:13.825Z,14.50
2022-10-18T01:20:31.334Z,15.10
2022-10-18T01:23:37.162Z,13.82
2022-10-18T01:26:48.477Z,14.57
2022-10-18T01:29:59.335Z,14.85
2022-10-18T01:33:15.639Z,15.10
2022-10-18T01:36:20.595Z,15.83
2022-10-18T01:39:26.955Z,15.68
2022-10-18T01:42:29.816Z,15.80
2022-10-18T01:45:33.005Z,15.48
2022-10-18T01:48:38.082Z,14.70
2022-10-18T01:51:40.422Z,15.57
2022-10-18T01:54:46.157Z,14.93
2022-10-18T01:58:06.265Z,15.30
2022-10-18T02:01:20.266Z,14.60
2022-10-18T02:04:31.611Z,16.10
2022-10-18T02:07:39.666Z,14.87
2022-10-18T02:10:45.681Z,15.80
2022-10-18T02:13:55.106Z,15.43
2022-10-18T02:16:58.826Z,15.15
2022-10-18T02:20:02.788Z,14.93
2022-10-18T02:23:07.806Z,16.00
2022-10-18T02:26:10.133Z,15.38
2022-10-18T02:29:12.650Z,14.82
2022-10-18T02:32:21.057Z,15.55
2022-10-18T02:35:30.170Z,14.45
2022-10-18T02:38:32.972Z,14.63
2022-10-18T02:41:35.282Z,14.18
2022-10-18T02:44:38.842Z,14.73
2022-10-18T02:47:41.207Z,14.60
2022-10-18T02:50:43.473Z,14.05
2022-10-18T02:53:45.780Z,14.60
2022-10-18T02:56:48.173Z,13.00
2022-10-18T02:59:50.716Z,14.43
2022-10-18T03:02:53.928Z,13.75
2022-10-18T03:05:56.271Z,13.27
2022-10-18T03:08:58.580Z,14.57
2022-10-18T03:12:00.881Z,14.25
2022-10-18T03:15:03.321Z,14.00
2022-10-18T03:18:05.717Z,14.25
2022-10-18T03:21:08.789Z,14.63
2022-10-18T03:24:11.092Z,14.90
2022-10-18T03:27:13.429Z,14.23
2022-10-18T03:30:15.815Z,14.15
2022-10-18T03:33:18.516Z,15.65
2022-10-18T03:36:20.839Z,14.90
2022-10-18T03:39:23.177Z,16.47
2022-10-18T03:42:25.575Z,16.23
2022-10-18T03:45:31.175Z,16.67
2022-10-18T03:48:34.076Z,16.52
2022-10-18T03:51:36.377Z,17.90
2022-10-18T03:54:38.721Z,16.63
2022-10-18T03:57:41.064Z,16.85
2022-10-18T04:00:43.376Z,15.48
2022-10-18T04:03:45.760Z,14.98
2022-10-18T04:06:48.089Z,14.98
2022-10-18T04:09:50.353Z,14.47
2022-10-18T04:12:52.798Z,14.43
2022-10-18T04:15:55.054Z,15.80
2022-10-18T04:18:57.373Z,14.73
2022-10-18T04:21:59.721Z,14.30
2022-10-18T04:25:02.009Z,14.80
2022-10-18T04:28:04.845Z,15.00
2022-10-18T04:31:07.193Z,15.02
2022-10-18T04:34:10.394Z,14.40
2022-10-18T04:37:12.581Z,14.00
2022-10-18T04:40:14.970Z,14.30
2022-10-18T04:43:17.452Z,13.85
2022-10-18T04:46:19.744Z,14.02
2022-10-18T04:49:21.965Z,14.65
2022-10-18T04:52:24.431Z,13.68
2022-10-18T04:55:26.762Z,12.70
2022-10-18T04:58:28.993Z,12.73
2022-10-18T05:01:31.306Z,12.98
2022-10-18T05:04:33.788Z,13.05
2022-10-18T05:07:36.161Z,12.95
2022-10-18T05:10:38.542Z,13.53
2022-10-18T05:13:40.868Z,14.75
2022-10-18T05:16:43.144Z,14.60
2022-10-18T05:19:45.478Z,14.85
2022-10-18T05:22:47.805Z,12.98
2022-10-18T05:25:50.061Z,14.10
2022-10-18T05:28:52.425Z,12.52
2022-10-18T05:31:54.781Z,13.18
2022-10-18T05:34:57.002Z,13.73
2022-10-18T05:37:59.377Z,14.18
2022-10-18T05:41:04.521Z,12.97
2022-10-18T05:44:07.530Z,13.48
2022-10-18T05:47:10.021Z,15.05
2022-10-18T05:50:12.301Z,15.25
2022-10-18T05:53:35.182Z,14.10
2022-10-18T05:56:36.780Z,12.67
2022-10-18T05:59:39.114Z,13.00
2022-10-18T06:02:41.441Z,12.15
2022-10-18T06:05:43.789Z,11.65
2022-10-18T06:08:49.226Z,12.32
2022-10-18T06:11:51.495Z,12.40
2022-10-18T06:14:53.765Z,12.82
2022-10-18T06:17:56.321Z,13.90
2022-10-18T06:20:59.584Z,20.02
2022-10-18T06:24:01.928Z,23.05
2022-10-18T06:27:09.098Z,21.43
2022-10-18T06:30:11.832Z,19.83
2022-10-18T06:33:14.122Z,17.90
2022-10-18T06:36:18.996Z,17.08
2022-10-18T06:39:21.305Z,17.63
2022-10-18T06:42:23.557Z,15.90
2022-10-18T06:45:25.856Z,15.93
2022-10-18T06:48:28.125Z,16.13
2022-10-18T06:51:30.387Z,15.50
2022-10-18T06:54:32.626Z,15.52
2022-10-18T06:57:34.913Z,14.90
2022-10-18T07:00:37.304Z,14.40
2022-10-18T07:03:39.680Z,14.18
2022-10-18T07:06:41.899Z,12.32
2022-10-18T07:09:46.088Z,13.40
2022-10-18T07:12:48.395Z,12.30
2022-10-18T07:16:12.911Z,11.68
2022-10-18T07:19:18.035Z,11.52
2022-10-18T07:22:20.337Z,13.38
2022-10-18T07:25:24.792Z,11.43
2022-10-18T07:28:29.823Z,11.63
2022-10-18T07:31:33.457Z,11.20
2022-10-18T07:34:35.869Z,8.10
2022-10-18T07:37:38.194Z,8.73
2022-10-18T07:40:40.413Z,8.25
2022-10-18T07:43:47.544Z,7.70
2022-10-18T07:46:49.769Z,8.35
2022-10-18T07:49:52.043Z,8.27
2022-10-18T07:52:54.397Z,7.95
2022-10-18T07:56:02.331Z,7.70
2022-10-18T07:59:06.916Z,7.63
2022-10-18T08:02:09.527Z,8.80
2022-10-18T08:05:11.798Z,7.85
2022-10-18T08:08:14.083Z,8.20
2022-10-18T08:11:18.924Z,6.63
2022-10-18T08:14:21.201Z,6.23
2022-10-18T08:17:23.486Z,6.22
2022-10-18T08:20:30.808Z,6.45
2022-10-18T08:23:34.438Z,6.30
2022-10-18T08:26:36.748Z,7.65
2022-10-18T08:29:39.096Z,6.50
2022-10-18T08:32:41.439Z,6.40
2022-10-18T08:35:43.712Z,6.60
2022-10-18T08:38:46.184Z,5.72
2022-10-18T08:41:54.795Z,5.85
2022-10-18T08:44:58.098Z,6.23
2022-10-18T08:48:00.424Z,5.55
2022-10-18T08:51:04.559Z,5.97
2022-10-18T08:54:12.144Z,5.47
2022-10-18T08:57:18.120Z,6.20
2022-10-18T09:00:22.759Z,5.80
2022-10-18T09:03:43.913Z,5.47
2022-10-18T09:07:19.974Z,5.45
2022-10-18T09:14:13.468Z,5.63
2022-10-18T09:17:16.258Z,5.20
2022-10-18T09:20:29.035Z,4.93
2022-10-18T09:23:49.641Z,5.05
2022-10-18T09:26:57.470Z,4.85
2022-10-18T09:30:20.929Z,5.25
2022-10-18T09:33:34.657Z,5.27
2022-10-18T09:36:38.800Z,5.38
2022-10-18T09:39:41.365Z,5.93
2022-10-18T09:42:53.436Z,5.30
2022-10-18T09:45:55.942Z,4.88
2022-10-18T09:49:01.845Z,5.40
2022-10-18T09:52:09.381Z,5.78
2022-10-18T09:55:19.396Z,4.82
2022-10-18T09:58:23.327Z,4.90
2022-10-18T10:01:27.567Z,5.40
2022-10-18T10:04:29.895Z,4.37
2022-10-18T10:07:42.685Z,4.10
2022-10-18T10:10:48.154Z,4.28
2022-10-18T10:13:50.426Z,5.38
2022-10-18T10:16:59.226Z,3.85
2022-10-18T10:20:20.818Z,3.97
2022-10-18T10:23:26.890Z,3.88
2022-10-18T10:26:36.668Z,3.90
2022-10-18T10:29:53.857Z,4.03
2022-10-18T10:32:57.041Z,3.85
2022-10-18T10:36:01.273Z,4.20
2022-10-18T10:39:04.916Z,4.00
2022-10-18T10:42:13.711Z,3.90
2022-10-18T10:45:16.136Z,3.72
2022-10-18T10:48:19.981Z,3.72
2022-10-18T10:51:33.049Z,4.07
2022-10-18T10:54:37.342Z,3.95
2022-10-18T10:57:39.681Z,3.55
2022-10-18T11:00:44.384Z,3.70
2022-10-18T11:03:48.873Z,3.90
2022-10-18T11:06:57.606Z,3.27
2022-10-18T11:10:13.526Z,3.90
2022-10-18T11:13:23.202Z,3.70
2022-10-18T11:17:07.713Z,3.72
2022-10-18T11:20:22.758Z,4.07
2022-10-18T11:23:32.009Z,3.53
2022-10-18T11:26:53.743Z,4.38
2022-10-18T11:29:59.440Z,4.20
2022-10-18T11:33:02.020Z,4.03
2022-10-18T11:36:09.366Z,3.50
2022-10-18T11:39:30.277Z,3.80
2022-10-18T11:42:53.628Z,4.03
2022-10-18T11:46:24.209Z,3.70
2022-10-18T11:49:54.147Z,4.00
2022-10-18T11:53:07.842Z,4.00
2022-10-18T11:56:13.146Z,4.00
2022-10-18T11:59:56.833Z,3.78
2022-10-18T12:03:14.123Z,3.67
2022-10-18T12:06:19.610Z,4.28
2022-10-18T12:09:27.906Z,4.30
2022-10-18T12:12:33.922Z,3.87
2022-10-18T12:15:39.433Z,3.60
2022-10-18T12:18:48.916Z,3.72
2022-10-18T12:21:51.685Z,3.50
2022-10-18T12:24:54.063Z,3.65
2022-10-18T12:28:06.760Z,3.63
2022-10-18T12:31:28.353Z,3.80
2022-10-18T12:34:44.174Z,3.80
2022-10-18T12:37:55.607Z,3.67
2022-10-18T12:40:59.103Z,3.90
2022-10-18T12:44:05.966Z,3.50
2022-10-18T12:47:22.135Z,3.47
2022-10-18T12:50:50.831Z,3.15
2022-10-18T12:54:02.028Z,2.95
2022-10-18T12:57:06.905Z,3.05
2022-10-18T13:00:31.656Z,3.30
2022-10-18T13:03:55.753Z,3.63
2022-10-18T13:06:59.674Z,3.30
2022-10-18T13:10:08.040Z,2.67
2022-10-18T13:13:38.714Z,2.90
2022-10-18T13:17:02.345Z,3.07
2022-10-18T13:20:27.110Z,2.80
2022-10-18T13:23:56.178Z,2.50
2022-10-18T13:27:31.113Z,2.30
2022-10-18T13:30:47.207Z,2.63
2022-10-18T13:33:49.955Z,2.30
2022-10-18T13:37:02.838Z,2.70
2022-10-18T13:40:21.834Z,2.50
2022-10-18T13:43:53.048Z,2.65
2022-10-18T13:46:55.395Z,2.63
2022-10-18T13:50:35.017Z,2.90
2022-10-18T13:53:51.163Z,2.88
2022-10-18T13:56:56.924Z,2.90
2022-10-18T14:00:21.045Z,2.97
2022-10-18T14:03:58.578Z,3.22
2022-10-18T14:07:03.462Z,2.50
2022-10-18T14:10:10.453Z,3.00
2022-10-18T14:13:21.074Z,2.85
2022-10-18T14:16:52.674Z,2.45
2022-10-18T14:20:48.976Z,3.35
2022-10-18T14:23:52.742Z,2.30
2022-10-18T14:27:20.562Z,2.67
2022-10-18T14:30:23.072Z,2.55
2022-10-18T14:33:28.256Z,2.28
2022-10-18T14:36:40.001Z,2.40
2022-10-18T14:39:42.277Z,2.60
2022-10-18T14:42:48.607Z,2.70
2022-10-18T14:45:50.879Z,3.00
2022-10-18T14:48:59.289Z,2.58
2022-10-18T14:52:01.706Z,3.10
2022-10-18T14:55:04.348Z,2.63
2022-10-18T14:58:15.286Z,2.78
2022-10-18T15:01:19.590Z,3.17
2022-10-18T15:04:27.701Z,3.05
2022-10-18T15:07:32.595Z,3.47
2022-10-18T15:10:35.597Z,2.73
2022-10-18T15:13:47.104Z,2.75
2022-10-18T15:16:49.993Z,2.65
2022-10-18T15:20:06.252Z,3.10
2022-10-18T15:23:26.578Z,3.25
2022-10-18T15:26:30.292Z,3.10
2022-10-18T15:29:35.300Z,3.00
2022-10-18T15:32:37.993Z,3.25
2022-10-18T15:35:43.425Z,3.30
2022-10-18T15:38:47.664Z,3.40
2022-10-18T15:41:59.547Z,2.83
2022-10-18T15:45:01.812Z,3.38
2022-10-18T15:48:09.280Z,3.63
2022-10-18T15:51:49.568Z,3.63
2022-10-18T15:54:51.859Z,3.05
2022-10-18T15:57:54.213Z,5.73
2022-10-18T16:00:59.001Z,4.97
2022-10-18T16:04:05.179Z,4.43
2022-10-18T16:07:09.620Z,4.40
2022-10-18T16:10:15.509Z,5.00
2022-10-18T16:13:18.530Z,5.17
2022-10-18T16:16:25.876Z,5.07
2022-10-18T16:19:28.151Z,4.60
2022-10-18T16:22:34.701Z,5.20
2022-10-18T16:25:39.287Z,5.88
2022-10-18T16:28:42.326Z,5.60
2022-10-18T16:31:46.711Z,6.30
2022-10-18T16:34:48.952Z,6.43
2022-10-18T16:37:51.181Z,7.03
2022-10-18T16:40:53.838Z,7.78
2022-10-18T16:43:56.161Z,7.97
2022-10-18T16:46:58.424Z,8.27
2022-10-18T16:50:06.462Z,7.90
2022-10-18T16:53:09.282Z,8.07
2022-10-18T16:56:17.461Z,7.80
2022-10-18T16:59:29.071Z,7.00
2022-10-18T17:02:31.720Z,7.10
2022-10-18T17:05:34.487Z,7.13
2022-10-18T17:08:36.748Z,7.28
2022-10-18T17:11:38.981Z,7.00
2022-10-18T17:14:41.280Z,8.90
2022-10-18T17:17:43.599Z,8.45
2022-10-18T17:20:46.296Z,8.27
2022-10-18T17:23:48.950Z,8.05
2022-10-18T17:26:51.249Z,8.57
2022-10-18T17:29:53.537Z,7.87
2022-10-18T17:32:55.911Z,8.25
2022-10-18T17:35:58.213Z,8.65
2022-10-18T17:39:00.732Z,8.05
2022-10-18T17:42:02.990Z,7.18
2022-10-18T17:45:05.882Z,7.23
2022-10-18T17:48:08.150Z,8.23
2022-10-18T17:51:11.573Z,11.98
2022-10-18T17:54:13.905Z,13.38
2022-10-18T17:57:16.351Z,27.27
2022-10-18T18:00:18.724Z,24.87
2022-10-18T18:03:21.320Z,22.85
2022-10-18T18:06:31.392Z,21.33
2022-10-18T18:09:33.767Z,21.27
2022-10-18T18:12:36.340Z,20.55
2022-10-18T18:15:38.794Z,17.67
2022-10-18T18:18:41.312Z,16.25
2022-10-18T18:21:43.689Z,14.90
2022-10-18T18:24:45.969Z,13.18
2022-10-18T18:27:48.173Z,11.73
2022-10-18T18:30:50.445Z,8.77
2022-10-18T18:33:54.460Z,9.77
2022-10-18T18:36:56.722Z,9.60
2022-10-18T18:39:59.055Z,8.60
2022-10-18T18:43:12.468Z,7.90
2022-10-18T18:46:25.001Z,6.87
2022-10-18T18:49:27.608Z,6.40
2022-10-18T18:52:30.010Z,6.53
2022-10-18T18:55:32.689Z,6.78
2022-10-18T18:58:36.420Z,6.40
2022-10-18T19:01:38.806Z,6.60
2022-10-18T19:04:41.462Z,6.65
2022-10-18T19:07:43.732Z,8.00
2022-10-18T19:10:49.059Z,7.30
2022-10-18T19:13:51.392Z,6.78
2022-10-18T19:16:55.286Z,8.17
2022-10-18T19:19:59.831Z,7.22
2022-10-18T19:23:02.127Z,8.38
2022-10-18T19:26:37.523Z,8.43
2022-10-18T19:29:40.963Z,8.32
2022-10-18T19:32:43.242Z,8.13
2022-10-18T19:35:45.499Z,8.25
2022-10-18T19:38:47.764Z,8.95
2022-10-18T19:41:52.291Z,8.88
2022-10-18T19:44:54.582Z,8.80
2022-10-18T19:47:56.836Z,9.10
2022-10-18T19:51:08.937Z,9.55
2022-10-18T19:54:13.113Z,9.98
2022-10-18T19:57:15.401Z,8.65
2022-10-18T20:00:19.645Z,8.30
2022-10-18T20:03:23.545Z,9.17
2022-10-18T20:06:26.529Z,8.52
2022-10-18T20:09:29.186Z,8.32
2022-10-18T20:12:31.789Z,8.52
2022-10-18T20:15:34.182Z,8.85
2022-10-18T20:18:36.787Z,8.57
2022-10-18T20:21:39.966Z,10.30
2022-10-18T20:24:42.205Z,9.00
2022-10-18T20:27:44.501Z,9.55
2022-10-18T20:30:46.752Z,9.93
2022-10-18T20:33:54.402Z,9.47
2022-10-18T20:36:56.709Z,10.23
2022-10-18T20:40:00.266Z,11.25
2022-10-18T20:43:03.851Z,11.15
2022-10-18T20:46:07.105Z,11.40
2022-10-18T20:49:13.834Z,12.97
2022-10-18T20:52:16.082Z,12.32
2022-10-18T20:55:18.955Z,13.18
2022-10-18T20:58:21.206Z,12.65
2022-10-18T21:01:31.862Z,13.13
2022-10-18T21:04:35.154Z,13.13
2022-10-18T21:07:39.085Z,13.75
2022-10-18T21:10:41.404Z,13.68
2022-10-18T21:13:43.673Z,13.02
2022-10-18T21:16:46.397Z,13.93
2022-10-18T21:19:48.626Z,13.57
2022-10-18T21:22:51.820Z,13.93
2022-10-18T21:25:54.112Z,13.13
2022-10-18T21:28:58.731Z,12.57
2022-10-18T21:32:02.319Z,12.55
2022-10-18T21:35:05.067Z,12.70
2022-10-18T21:38:07.886Z,12.73
2022-10-18T21:41:11.488Z,13.00
2022-10-18T21:44:14.119Z,12.88
2022-10-18T21:47:16.411Z,12.93
2022-10-18T21:50:18.688Z,12.77
2022-10-18T21:53:21.686Z,13.60
2022-10-18T21:56:33.555Z,13.55
2022-10-18T21:59:35.822Z,12.27
2022-10-18T22:02:38.142Z,12.98
2022-10-18T22:05:40.509Z,12.40
2022-10-18T22:08:45.668Z,12.50
2022-10-18T22:11:52.315Z,13.93
2022-10-18T22:14:54.637Z,13.32
2022-10-18T22:17:56.887Z,13.73
2022-10-18T22:21:05.458Z,13.17
2022-10-18T22:24:09.103Z,13.10
2022-10-18T22:27:11.405Z,13.20
2022-10-18T22:30:13.736Z,13.57
2022-10-18T22:33:16.058Z,13.48
2022-10-18T22:36:18.332Z,14.30
2022-10-18T22:39:20.632Z,12.63
2022-10-18T22:42:22.942Z,13.20
2022-10-18T22:45:25.295Z,12.77
2022-10-18T22:48:27.661Z,12.45
2022-10-18T22:51:30.086Z,12.37
2022-10-18T22:54:32.417Z,12.85
2022-10-18T22:57:34.861Z,13.52
2022-10-18T23:00:38.576Z,13.23
2022-10-18T23:03:40.974Z,12.82
2022-10-18T23:06:43.271Z,13.23
2022-10-18T23:09:45.658Z,12.88
2022-10-18T23:12:47.937Z,13.48
2022-10-18T23:15:50.603Z,13.85
2022-10-18T23:18:57.508Z,12.35
2022-10-18T23:21:59.750Z,12.97
2022-10-18T23:25:04.263Z,13.02
2022-10-18T23:28:06.564Z,13.40
2022-10-18T23:31:11.030Z,15.90
2022-10-18T23:34:13.404Z,16.92
2022-10-18T23:37:15.672Z,16.17
2022-10-18T23:40:18.014Z,18.50
2022-10-18T23:43:20.215Z,19.38
2022-10-18T23:46:22.605Z,17.20
2022-10-18T23:49:24.874Z,17.98
2022-10-18T23:52:27.163Z,18.40
2022-10-18T23:55:29.438Z,17.63
2022-10-18T23:58:33.123Z,18.75
